createdAt,value
2023-08-09T00:02:46.219Z,100716.81
2023-08-09T00:05:48.562Z,100701.31
2023-08-09T00:08:50.505Z,100703.53
2023-08-09T00:11:52.594Z,100696.75
2023-08-09T00:14:54.738Z,100709.13
2023-08-09T00:17:56.736Z,100693.47
2023-08-09T00:20:59.005Z,100709.06
2023-08-09T00:24:01.384Z,100711.06
2023-08-09T00:27:04.126Z,100715.97
2023-08-09T00:30:09.796Z,100717.81
2023-08-09T00:33:13.088Z,100718.41
2023-08-09T00:36:17.369Z,100716.31
2023-08-09T00:39:21.178Z,100714.59
2023-08-09T00:42:24.533Z,100710.31
2023-08-09T00:45:26.836Z,100710.94
2023-08-09T00:48:28.695Z,100714.78
2023-08-09T00:51:31.128Z,100707.41
2023-08-09T00:54:34.020Z,100698.84
2023-08-09T00:57:36.279Z,100704.69
2023-08-09T01:00:38.411Z,100708.53
2023-08-09T01:03:40.796Z,100703.28
2023-08-09T01:06:47.937Z,100705.13
2023-08-09T01:10:04.219Z,100708.13
2023-08-09T01:13:07.972Z,100714.88
2023-08-09T01:16:12.459Z,100707.22
2023-08-09T01:19:40.883Z,100709.44
2023-08-09T01:22:50.406Z,100710.66
2023-08-09T01:25:52.669Z,100702.44
2023-08-09T01:28:57.266Z,100707.91
2023-08-09T01:31:59.496Z,100708.16
2023-08-09T01:35:02.296Z,100704.44
2023-08-09T01:38:12.121Z,100702.13
2023-08-09T01:41:15.263Z,100703.50
2023-08-09T01:44:18.346Z,100706.16
2023-08-09T01:47:21.315Z,100699.69
2023-08-09T01:50:26.033Z,100699.69
2023-08-09T01:53:28.920Z,100706.47
2023-08-09T01:56:31.588Z,100708.41
2023-08-09T01:59:33.943Z,100705.19
2023-08-09T02:02:36.688Z,100702.56
2023-08-09T02:05:39.887Z,100705.34
2023-08-09T02:08:44.697Z,100704.06
2023-08-09T02:11:48.668Z,100706.47
2023-08-09T02:14:52.188Z,100705.69
2023-08-09T02:17:54.449Z,100690.44
2023-08-09T02:20:57.193Z,100692.03
2023-08-09T02:23:59.468Z,100711.88
2023-08-09T02:27:01.664Z,100716.13
2023-08-09T02:30:04.983Z,100712.66
2023-08-09T02:33:09.791Z,100720.25
2023-08-09T02:36:13.083Z,100721.53
2023-08-09T02:39:17.473Z,100721.59
2023-08-09T02:42:23.041Z,100721.97
2023-08-09T02:45:25.051Z,100721.16
2023-08-09T02:48:27.324Z,100722.06
2023-08-09T02:51:29.890Z,100722.66
2023-08-09T02:54:33.082Z,100731.06
2023-08-09T02:57:35.189Z,100731.25
2023-08-09T03:00:38.227Z,100729.38
2023-08-09T03:03:40.305Z,100739.34
2023-08-09T03:06:42.433Z,100740.41
2023-08-09T03:09:44.633Z,100740.22
2023-08-09T03:12:46.795Z,100741.94
2023-08-09T03:15:49.005Z,100746.31
2023-08-09T03:18:51.366Z,100742.94
2023-08-09T03:21:54.037Z,100747.56
2023-08-09T03:24:56.156Z,100743.94
2023-08-09T03:27:58.512Z,100739.78
2023-08-09T03:31:03.848Z,100744.75
2023-08-09T03:34:06.469Z,100747.50
2023-08-09T03:37:08.877Z,100751.78
2023-08-09T03:40:13.792Z,100750.44
2023-08-09T03:43:17.620Z,100752.72
2023-08-09T03:46:19.880Z,100755.72
2023-08-09T03:49:22.472Z,100751.91
2023-08-09T03:52:24.928Z,100759.69
2023-08-09T03:55:27.127Z,100731.25
2023-08-09T03:58:29.305Z,100747.88
2023-08-09T04:01:32.546Z,100721.56
2023-08-09T04:04:36.127Z,100761.78
2023-08-09T04:07:38.448Z,100762.22
2023-08-09T04:10:40.764Z,100758.88
2023-08-09T04:13:42.849Z,100767.41
2023-08-09T04:16:45.240Z,100753.84
2023-08-09T04:19:47.373Z,100754.47
2023-08-09T04:22:49.375Z,100758.25
2023-08-09T04:25:51.569Z,100765.47
2023-08-09T04:28:56.282Z,100759.91
2023-08-09T04:31:58.615Z,100758.81
2023-08-09T04:35:00.706Z,100768.63
2023-08-09T04:38:06.018Z,100760.44
2023-08-09T04:41:08.193Z,100753.53
2023-08-09T04:44:10.552Z,100757.44
2023-08-09T04:47:13.483Z,100753.53
2023-08-09T04:50:15.926Z,100761.91
2023-08-09T04:53:17.851Z,100759.38
2023-08-09T04:56:20.237Z,100767.16
2023-08-09T04:59:22.456Z,100758.81
2023-08-09T05:02:25.232Z,100770.06
2023-08-09T05:05:29.721Z,100762.22
2023-08-09T05:08:33.209Z,100769.81
2023-08-09T05:11:35.460Z,100765.25
2023-08-09T05:14:37.928Z,100755.91
2023-08-09T05:17:40.172Z,100764.81
2023-08-09T05:20:43.185Z,100766.91
2023-08-09T05:23:45.504Z,100764.97
2023-08-09T05:26:48.792Z,100774.28
2023-08-09T05:29:50.938Z,100770.50
2023-08-09T05:32:53.768Z,100775.69
2023-08-09T05:35:57.018Z,100776.69
2023-08-09T05:39:01.841Z,100771.84
2023-08-09T05:42:08.292Z,100779.44
2023-08-09T05:45:10.725Z,100771.47
2023-08-09T05:48:13.602Z,100771.31
2023-08-09T05:51:16.042Z,100776.34
2023-08-09T05:54:19.733Z,100777.72
2023-08-09T05:57:22.738Z,100780.56
2023-08-09T06:00:25.859Z,100776.09
2023-08-09T06:03:28.744Z,100778.00
2023-08-09T06:06:31.104Z,100780.28
2023-08-09T06:09:33.482Z,100763.25
2023-08-09T06:12:35.964Z,100766.19
2023-08-09T06:15:38.310Z,100764.84
2023-08-09T06:18:40.337Z,100757.16
2023-08-09T06:21:46.099Z,100759.03
2023-08-09T06:24:48.216Z,100764.00
2023-08-09T06:27:51.741Z,100766.66
2023-08-09T06:30:54.112Z,100771.69
2023-08-09T06:33:56.423Z,100772.91
2023-08-09T06:36:58.608Z,100772.00
2023-08-09T06:40:00.727Z,100770.97
2023-08-09T06:43:02.712Z,100771.81
2023-08-09T06:46:05.291Z,100765.75
2023-08-09T06:49:08.561Z,100768.53
2023-08-09T06:52:11.709Z,100774.19
2023-08-09T06:55:14.825Z,100780.34
2023-08-09T06:58:17.262Z,100772.75
2023-08-09T07:01:19.665Z,100766.25
2023-08-09T07:04:21.811Z,100778.00
2023-08-09T07:07:24.218Z,100775.16
2023-08-09T07:10:26.773Z,100770.97
2023-08-09T07:13:31.474Z,100770.16
2023-08-09T07:16:35.206Z,100767.66
2023-08-09T07:19:37.456Z,100767.03
2023-08-09T07:22:40.511Z,100767.75
2023-08-09T07:25:42.559Z,100759.41
2023-08-09T07:28:44.920Z,100764.59
2023-08-09T07:31:47.237Z,100765.47
2023-08-09T07:34:50.627Z,100767.63
2023-08-09T07:37:53.754Z,100760.13
2023-08-09T07:40:55.789Z,100757.19
2023-08-09T07:43:58.105Z,100771.44
2023-08-09T07:47:00.397Z,100760.81
2023-08-09T07:50:02.680Z,100760.81
2023-08-09T07:53:05.324Z,100755.53
2023-08-09T07:56:07.612Z,100756.66
2023-08-09T07:59:09.664Z,100756.50
2023-08-09T08:02:11.839Z,100757.47
2023-08-09T08:05:15.056Z,100758.56
2023-08-09T08:08:18.900Z,100759.41
2023-08-09T08:11:22.562Z,100763.69
2023-08-09T08:14:24.902Z,100762.56
2023-08-09T08:17:28.037Z,100759.19
2023-08-09T08:20:30.484Z,100760.59
2023-08-09T08:23:33.735Z,100758.72
2023-08-09T08:26:36.538Z,100747.94
2023-08-09T08:29:40.008Z,100754.66
2023-08-09T08:32:42.717Z,100753.97
2023-08-09T08:35:45.964Z,100758.13
2023-08-09T08:38:48.216Z,100760.47
2023-08-09T08:41:50.926Z,100755.25
2023-08-09T08:44:53.541Z,100760.72
2023-08-09T08:47:55.695Z,100753.63
2023-08-09T08:50:58.467Z,100754.41
2023-08-09T08:54:00.906Z,100752.22
2023-08-09T08:57:06.333Z,100748.13
2023-08-09T09:03:24.402Z,100751.66
2023-08-09T09:06:26.738Z,100744.75
2023-08-09T09:09:29.186Z,100742.78
2023-08-09T09:12:31.554Z,100744.28
2023-08-09T09:15:37.686Z,100737.44
2023-08-09T09:18:44.458Z,100733.72
2023-08-09T09:21:48.017Z,100740.00
2023-08-09T09:24:50.310Z,100735.50
2023-08-09T09:27:57.847Z,100739.28
2023-08-09T09:31:00.185Z,100734.53
2023-08-09T09:34:04.536Z,100738.38
2023-08-09T09:37:07.007Z,100748.44
2023-08-09T09:40:12.036Z,100733.25
2023-08-09T09:43:15.059Z,100731.47
2023-08-09T09:46:36.672Z,100741.00
2023-08-09T09:49:52.153Z,100735.28
2023-08-09T09:52:55.641Z,100735.53
2023-08-09T09:55:59.702Z,100737.91
2023-08-09T09:59:05.962Z,100737.16
2023-08-09T10:02:12.811Z,100731.72
2023-08-09T10:05:30.445Z,100719.34
2023-08-09T10:08:34.238Z,100721.72
2023-08-09T10:11:37.494Z,100712.13
2023-08-09T10:14:40.034Z,100717.38
2023-08-09T10:17:43.595Z,100705.13
2023-08-09T10:20:52.179Z,100710.00
2023-08-09T10:24:08.038Z,100706.44
2023-08-09T10:27:13.004Z,100704.09
2023-08-09T10:30:17.735Z,100709.13
2023-08-09T10:33:21.719Z,100700.88
2023-08-09T10:36:34.921Z,100704.09
2023-08-09T10:39:37.793Z,100709.13
2023-08-09T10:42:40.345Z,100694.53
2023-08-09T10:45:42.448Z,100691.94
2023-08-09T10:48:52.433Z,100697.47
2023-08-09T10:51:56.376Z,100690.81
2023-08-09T10:55:20.421Z,100696.63
2023-08-09T10:58:32.148Z,100702.97
2023-08-09T11:01:38.732Z,100695.69
2023-08-09T11:04:41.653Z,100698.59
2023-08-09T11:07:47.006Z,100701.97
2023-08-09T11:10:49.680Z,100697.59
2023-08-09T11:13:56.134Z,100692.41
2023-08-09T11:17:02.397Z,100692.59
2023-08-09T11:20:14.910Z,100699.31
2023-08-09T11:23:17.096Z,100689.59
2023-08-09T11:26:19.234Z,100688.78
2023-08-09T11:29:25.988Z,100686.59
2023-08-09T11:32:32.974Z,100681.63
2023-08-09T11:35:45.741Z,100677.00
2023-08-09T11:38:47.863Z,100691.59
2023-08-09T11:41:54.788Z,100685.75
2023-08-09T11:44:57.174Z,100687.19
2023-08-09T11:47:59.546Z,100683.97
2023-08-09T11:51:07.123Z,100681.91
2023-08-09T11:54:10.305Z,100675.50
2023-08-09T11:57:12.557Z,100680.94
2023-08-09T12:00:17.549Z,100683.47
2023-08-09T12:03:23.420Z,100677.81
2023-08-09T12:06:36.517Z,100676.50
2023-08-09T12:09:38.422Z,100680.16
2023-08-09T12:12:42.927Z,100668.59
2023-08-09T12:15:45.025Z,100680.63
2023-08-09T12:18:50.306Z,100678.16
2023-08-09T12:21:55.239Z,100678.97
2023-08-09T12:24:58.610Z,100681.88
2023-08-09T12:28:05.276Z,100675.81
2023-08-09T12:31:07.926Z,100685.91
2023-08-09T12:34:11.879Z,100679.47
2023-08-09T12:37:14.036Z,100680.97
2023-08-09T12:40:16.713Z,100682.38
2023-08-09T12:43:18.830Z,100683.16
2023-08-09T12:46:20.993Z,100685.47
2023-08-09T12:49:23.443Z,100682.47
2023-08-09T12:52:25.402Z,100677.22
2023-08-09T12:55:28.262Z,100679.34
2023-08-09T12:58:31.527Z,100678.84
2023-08-09T13:01:34.811Z,100671.81
2023-08-09T13:04:38.040Z,100673.25
2023-08-09T13:07:41.157Z,100675.00
2023-08-09T13:10:43.368Z,100671.44
2023-08-09T13:13:45.688Z,100665.75
2023-08-09T13:16:50.921Z,100656.03
2023-08-09T13:19:55.529Z,100652.13
2023-08-09T13:22:57.776Z,100640.34
2023-08-09T13:26:00.635Z,100635.84
2023-08-09T13:29:02.999Z,100629.91
2023-08-09T13:32:07.016Z,100638.59
2023-08-09T13:35:10.425Z,100640.34
2023-08-09T13:38:27.105Z,100647.81
2023-08-09T13:41:29.161Z,100643.81
2023-08-09T13:44:31.315Z,100638.75
2023-08-09T13:47:33.809Z,100640.44
2023-08-09T13:50:38.080Z,100642.25
2023-08-09T13:53:39.983Z,100642.63
2023-08-09T13:56:42.316Z,100640.91
2023-08-09T13:59:46.483Z,100636.53
2023-08-09T14:02:48.666Z,100646.19
2023-08-09T14:05:53.031Z,100640.38
2023-08-09T14:08:55.395Z,100641.03
2023-08-09T14:11:57.678Z,100640.41
2023-08-09T14:14:59.971Z,100625.16
2023-08-09T14:18:02.011Z,100618.06
2023-08-09T14:21:04.011Z,100610.81
2023-08-09T14:24:07.269Z,100610.16
2023-08-09T14:27:09.241Z,100602.25
2023-08-09T14:30:11.604Z,100605.13
2023-08-09T14:33:16.340Z,100609.38
2023-08-09T14:36:18.444Z,100599.50
2023-08-09T14:39:22.120Z,100609.00
2023-08-09T14:42:24.379Z,100603.16
2023-08-09T14:45:26.901Z,100599.19
2023-08-09T14:48:29.755Z,100614.19
2023-08-09T14:51:32.266Z,100621.00
2023-08-09T14:54:38.866Z,100628.53
2023-08-09T14:57:42.435Z,100608.91
2023-08-09T15:00:47.502Z,100618.63
2023-08-09T15:03:52.271Z,100615.16
2023-08-09T15:06:55.237Z,100619.88
2023-08-09T15:09:58.027Z,100616.72
2023-08-09T15:13:00.644Z,100620.94
2023-08-09T15:16:03.715Z,100620.28
2023-08-09T15:19:05.703Z,100621.75
2023-08-09T15:22:08.457Z,100619.94
2023-08-09T15:25:20.106Z,100616.16
2023-08-09T15:28:24.663Z,100613.47
2023-08-09T15:31:27.149Z,100611.31
2023-08-09T15:34:31.740Z,100603.81
2023-08-09T15:37:35.906Z,100612.00
2023-08-09T15:40:38.238Z,100618.06
2023-08-09T15:43:46.042Z,100622.97
2023-08-09T15:46:48.462Z,100617.34
2023-08-09T15:49:52.257Z,100615.25
2023-08-09T15:52:55.500Z,100615.13
2023-08-09T15:55:58.781Z,100619.00
2023-08-09T15:59:06.073Z,100627.09
2023-08-09T16:02:09.052Z,100621.84
2023-08-09T16:05:14.422Z,100625.88
2023-08-09T16:08:19.184Z,100617.84
2023-08-09T16:11:22.349Z,100625.72
2023-08-09T16:14:24.791Z,100611.28
2023-08-09T16:17:28.153Z,100624.97
2023-08-09T16:20:35.274Z,100625.22
2023-08-09T16:23:37.722Z,100624.72
2023-08-09T16:26:42.508Z,100625.38
2023-08-09T16:29:44.859Z,100628.78
2023-08-09T16:32:47.347Z,100627.97
2023-08-09T16:35:49.626Z,100614.03
2023-08-09T16:38:51.697Z,100622.00
2023-08-09T16:41:55.310Z,100624.56
2023-08-09T16:44:57.554Z,100628.69
2023-08-09T16:47:59.608Z,100627.78
2023-08-09T16:51:01.767Z,100632.31
2023-08-09T16:54:07.127Z,100635.25
2023-08-09T16:57:09.214Z,100630.63
2023-08-09T17:00:16.072Z,100635.84
2023-08-09T17:03:20.518Z,100636.81
2023-08-09T17:06:23.693Z,100634.97
2023-08-09T17:09:28.089Z,100640.53
2023-08-09T17:12:30.310Z,100645.06
2023-08-09T17:15:33.723Z,100638.34
2023-08-09T17:18:36.904Z,100640.47
2023-08-09T17:21:40.601Z,100648.13
2023-08-09T17:24:44.897Z,100653.44
2023-08-09T17:27:47.536Z,100665.81
2023-08-09T17:30:49.631Z,100663.81
2023-08-09T17:33:52.408Z,100680.03
2023-08-09T17:36:56.649Z,100667.88
2023-08-09T17:39:58.633Z,100670.16
2023-08-09T17:43:00.685Z,100662.47
2023-08-09T17:46:02.766Z,100672.06
2023-08-09T17:49:07.067Z,100663.19
2023-08-09T17:52:09.095Z,100682.81
2023-08-09T17:55:12.394Z,100682.22
2023-08-09T17:58:15.412Z,100691.25
2023-08-09T18:01:17.662Z,100681.03
2023-08-09T18:04:21.380Z,100684.66
2023-08-09T18:07:23.506Z,100688.09
2023-08-09T18:10:25.553Z,100695.53
2023-08-09T18:13:30.073Z,100691.31
2023-08-09T18:16:33.408Z,100693.28
2023-08-09T18:19:35.375Z,100706.06
2023-08-09T18:22:37.385Z,100705.63
2023-08-09T18:25:40.425Z,100701.84
2023-08-09T18:28:46.200Z,100718.81
2023-08-09T18:31:48.126Z,100719.56
2023-08-09T18:34:50.964Z,100719.19
2023-08-09T18:37:54.332Z,100711.22
2023-08-09T18:40:57.633Z,100709.53
2023-08-09T18:44:00.446Z,100706.00
2023-08-09T18:47:03.812Z,100699.38
2023-08-09T18:50:07.751Z,100714.41
2023-08-09T18:53:13.829Z,100710.00
2023-08-09T18:56:18.546Z,100716.91
2023-08-09T18:59:21.053Z,100716.78
2023-08-09T19:02:23.263Z,100724.78
2023-08-09T19:05:26.609Z,100729.06
2023-08-09T19:08:29.872Z,100722.41
2023-08-09T19:11:32.528Z,100741.53
2023-08-09T19:14:34.852Z,100742.19
2023-08-09T19:17:40.582Z,100731.13
2023-08-09T19:20:48.200Z,100746.19
2023-08-09T19:23:52.166Z,100748.75
2023-08-09T19:26:57.116Z,100745.97
2023-08-09T19:30:00.780Z,100749.66
2023-08-09T19:33:03.271Z,100764.00
2023-08-09T19:36:08.463Z,100753.13
2023-08-09T19:39:11.447Z,100754.78
2023-08-09T19:42:13.544Z,100759.66
2023-08-09T19:45:16.595Z,100752.47
2023-08-09T19:48:18.677Z,100760.72
2023-08-09T19:51:23.577Z,100767.63
2023-08-09T19:54:25.659Z,100760.66
2023-08-09T19:57:28.164Z,100758.59
2023-08-09T20:00:30.425Z,100770.25
2023-08-09T20:03:34.470Z,100756.66
2023-08-09T20:06:37.369Z,100768.63
2023-08-09T20:09:39.541Z,100761.53
2023-08-09T20:12:41.844Z,100769.06
2023-08-09T20:15:44.199Z,100765.38
2023-08-09T20:18:46.393Z,100738.75
2023-08-09T20:21:48.914Z,100755.19
2023-08-09T20:24:51.061Z,100740.31
2023-08-09T20:27:53.286Z,100759.03
2023-08-09T20:30:56.266Z,100761.47
2023-08-09T20:33:58.719Z,100766.94
2023-08-09T20:37:01.316Z,100763.00
2023-08-09T20:40:11.546Z,100764.94
2023-08-09T20:43:13.937Z,100771.25
2023-08-09T20:46:15.963Z,100752.47
2023-08-09T20:49:18.251Z,100758.81
2023-08-09T20:52:20.244Z,100757.13
2023-08-09T20:55:22.309Z,100754.91
2023-08-09T20:58:24.663Z,100767.91
2023-08-09T21:01:28.371Z,100773.94
2023-08-09T21:04:30.757Z,100771.72
2023-08-09T21:07:32.882Z,100773.56
2023-08-09T21:10:34.822Z,100773.81
2023-08-09T21:13:36.666Z,100774.38
2023-08-09T21:16:43.939Z,100774.03
2023-08-09T21:19:48.320Z,100777.09
2023-08-09T21:22:58.123Z,100776.56
2023-08-09T21:26:01.817Z,100781.41
2023-08-09T21:29:04.118Z,100790.78
2023-08-09T21:32:06.956Z,100791.81
2023-08-09T21:35:10.367Z,100779.44
2023-08-09T21:38:15.888Z,100786.22
2023-08-09T21:41:20.097Z,100780.88
2023-08-09T21:44:22.143Z,100793.06
2023-08-09T21:47:24.202Z,100784.25
2023-08-09T21:50:27.322Z,100787.44
2023-08-09T21:53:29.779Z,100785.91
2023-08-09T21:56:31.827Z,100793.25
2023-08-09T21:59:34.180Z,100793.78
2023-08-09T22:02:36.298Z,100792.75
2023-08-09T22:05:38.612Z,100802.22
2023-08-09T22:08:41.134Z,100779.16
2023-08-09T22:11:48.555Z,100795.19
2023-08-09T22:15:01.748Z,100797.25
2023-08-09T22:18:04.338Z,100800.28
2023-08-09T22:21:06.418Z,100797.53
2023-08-09T22:24:10.653Z,100811.03
2023-08-09T22:27:12.785Z,100804.91
2023-08-09T22:30:15.271Z,100802.88
2023-08-09T22:33:17.528Z,100808.19
2023-08-09T22:36:20.263Z,100811.72
2023-08-09T22:39:23.808Z,100806.84
2023-08-09T22:42:26.331Z,100808.81
2023-08-09T22:45:31.547Z,100807.03
2023-08-09T22:48:33.775Z,100796.81
2023-08-09T22:51:36.143Z,100808.69
2023-08-09T22:54:39.160Z,100799.69
2023-08-09T22:57:41.261Z,100802.91
2023-08-09T23:00:43.348Z,100814.53
2023-08-09T23:03:45.818Z,100801.25
2023-08-09T23:06:49.151Z,100810.41
2023-08-09T23:09:50.992Z,100800.66
2023-08-09T23:12:53.197Z,100800.59
2023-08-09T23:15:56.426Z,100800.69
2023-08-09T23:18:58.827Z,100797.78
2023-08-09T23:22:01.165Z,100787.31
2023-08-09T23:25:04.059Z,100780.09
2023-08-09T23:28:06.372Z,100793.94
2023-08-09T23:31:08.708Z,100792.09
2023-08-09T23:34:13.098Z,100806.41
2023-08-09T23:37:15.808Z,100804.41
2023-08-09T23:40:19.123Z,100809.31
2023-08-09T23:43:21.909Z,100805.25
2023-08-09T23:46:23.846Z,100805.03
2023-08-09T23:49:26.053Z,100803.25
2023-08-09T23:52:30.559Z,100805.53
2023-08-09T23:55:33.274Z,100811.06
2023-08-09T23:58:36.036Z,100802.31
